createdAt,value
2022-08-25T00:00:34.345Z,14.10
2022-08-25T00:05:36.444Z,14.11
2022-08-25T00:10:39.943Z,14.09
2022-08-25T00:15:41.818Z,13.99
2022-08-25T00:20:48.845Z,13.94
2022-08-25T00:25:51.500Z,13.87
2022-08-25T00:30:53.345Z,13.80
2022-08-25T00:35:56.478Z,13.77
2022-08-25T00:41:07.150Z,13.73
2022-08-25T00:46:10.208Z,13.67
2022-08-25T00:51:16.897Z,13.66
2022-08-25T00:56:19.401Z,13.61
2022-08-25T01:01:23.902Z,13.57
2022-08-25T01:06:27.409Z,13.50
2022-08-25T01:11:29.224Z,13.47
2022-08-25T01:16:31.215Z,13.45
2022-08-25T01:21:46.754Z,13.45
2022-08-25T01:26:48.578Z,13.42
2022-08-25T01:31:54.826Z,13.42
2022-08-25T01:36:58.286Z,13.33
2022-08-25T01:42:03.142Z,13.28
2022-08-25T01:47:06.171Z,13.23
2022-08-25T01:52:13.324Z,13.16
2022-08-25T01:57:15.185Z,13.09
2022-08-25T02:02:18.435Z,13.07
2022-08-25T02:07:20.704Z,13.02
2022-08-25T02:12:22.519Z,12.98
2022-08-25T02:17:24.602Z,12.96
2022-08-25T02:22:27.062Z,12.93
2022-08-25T02:27:29.539Z,12.89
2022-08-25T02:32:31.574Z,12.85
2022-08-25T02:37:33.441Z,12.81
2022-08-25T02:42:35.308Z,12.79
2022-08-25T02:47:37.334Z,12.77
2022-08-25T02:52:41.176Z,12.73
2022-08-25T02:57:43.296Z,12.75
2022-08-25T03:02:45.194Z,12.73
2022-08-25T03:07:47.060Z,12.74
2022-08-25T03:12:49.313Z,12.73
2022-08-25T03:17:51.678Z,12.70
2022-08-25T03:22:53.643Z,12.68
2022-08-25T03:27:55.595Z,12.64
2022-08-25T03:32:57.514Z,12.61
2022-08-25T03:38:00.578Z,12.64
2022-08-25T03:43:03.092Z,12.61
2022-08-25T03:48:05.094Z,12.55
2022-08-25T03:53:07.669Z,12.47
2022-08-25T03:58:12.765Z,12.48
2022-08-25T04:03:14.694Z,12.47
2022-08-25T04:08:16.648Z,12.44
2022-08-25T04:13:21.532Z,12.46
2022-08-25T04:18:23.371Z,12.48
2022-08-25T04:23:25.193Z,12.48
2022-08-25T04:28:27.352Z,12.58
2022-08-25T04:33:29.276Z,12.76
2022-08-25T04:38:32.384Z,12.85
2022-08-25T04:43:36.647Z,12.90
2022-08-25T04:48:42.319Z,12.95
2022-08-25T04:53:44.307Z,13.03
2022-08-25T04:58:47.227Z,13.14
2022-08-25T05:03:55.543Z,13.29
2022-08-25T05:08:58.806Z,13.41
2022-08-25T05:14:02.157Z,13.56
2022-08-25T05:19:04.885Z,13.74
2022-08-25T05:24:08.161Z,13.97
2022-08-25T05:29:11.060Z,14.17
2022-08-25T05:34:12.937Z,14.40
2022-08-25T05:39:14.921Z,14.68
2022-08-25T05:44:20.820Z,14.92
2022-08-25T05:49:23.319Z,15.14
2022-08-25T05:54:25.472Z,15.39
2022-08-25T05:59:27.403Z,15.63
2022-08-25T06:04:29.273Z,15.91
2022-08-25T06:09:31.173Z,16.18
2022-08-25T06:14:33.739Z,16.37
2022-08-25T06:19:35.743Z,16.57
2022-08-25T06:24:41.638Z,16.76
2022-08-25T06:29:43.567Z,16.98
2022-08-25T06:34:45.444Z,17.20
2022-08-25T06:39:47.346Z,17.41
2022-08-25T06:44:49.251Z,17.69
2022-08-25T06:49:51.105Z,18.05
2022-08-25T06:54:53.367Z,18.33
2022-08-25T06:59:55.287Z,18.72
2022-08-25T07:04:58.814Z,18.99
2022-08-25T07:10:00.641Z,19.28
2022-08-25T07:15:20.419Z,19.58
2022-08-25T07:25:24.524Z,19.91
2022-08-25T07:30:26.564Z,20.21
2022-08-25T07:35:37.641Z,20.34
2022-08-25T07:40:43.024Z,20.56
2022-08-25T07:45:48.992Z,20.73
2022-08-25T07:50:51.441Z,21.14
2022-08-25T07:55:53.757Z,21.27
2022-08-25T08:00:55.722Z,21.62
2022-08-25T08:05:58.172Z,21.86
2022-08-25T08:11:05.157Z,21.73
2022-08-25T08:16:11.959Z,22.04
2022-08-25T08:21:20.128Z,22.28
2022-08-25T08:26:31.742Z,22.33
2022-08-25T08:31:38.686Z,22.74
2022-08-25T08:36:40.866Z,22.75
2022-08-25T08:42:19.843Z,22.80
2022-08-25T08:47:46.739Z,22.97
2022-08-25T08:53:08.153Z,23.45
2022-08-25T08:58:19.799Z,23.26
2022-08-25T09:03:55.130Z,23.68
2022-08-25T09:09:02.107Z,23.89
2022-08-25T09:14:30.493Z,24.29
2022-08-25T09:19:41.934Z,24.74
2022-08-25T09:25:09.114Z,25.34
2022-08-25T09:30:17.284Z,25.59
2022-08-25T09:35:29.254Z,26.24
2022-08-25T09:40:34.852Z,26.45
2022-08-25T09:45:49.824Z,25.95
2022-08-25T09:51:01.166Z,25.36
2022-08-25T09:56:06.878Z,26.19
2022-08-25T10:01:20.887Z,26.70
2022-08-25T10:06:25.797Z,27.03
2022-08-25T10:11:44.544Z,27.76
2022-08-25T10:16:48.983Z,27.30
2022-08-25T10:22:11.117Z,27.50
2022-08-25T10:27:35.863Z,27.05
2022-08-25T10:33:06.913Z,27.02
2022-08-25T10:38:33.435Z,27.67
2022-08-25T10:43:48.574Z,27.78
2022-08-25T10:49:12.783Z,27.61
2022-08-25T10:54:25.393Z,28.47
2022-08-25T10:59:58.455Z,28.33
2022-08-25T11:05:28.895Z,28.81
2022-08-25T11:10:48.010Z,30.37
2022-08-25T11:16:19.619Z,31.33
2022-08-25T11:21:42.230Z,34.26
2022-08-25T11:26:51.821Z,35.64
2022-08-25T11:31:54.677Z,34.39
2022-08-25T11:37:01.322Z,32.87
2022-08-25T11:42:43.296Z,29.89
2022-08-25T11:47:52.236Z,30.71
2022-08-25T11:52:57.816Z,29.51
2022-08-25T11:58:14.995Z,28.80
2022-08-25T12:03:37.066Z,29.61
2022-08-25T12:09:00.754Z,28.06
2022-08-25T12:14:28.857Z,27.89
2022-08-25T12:19:53.391Z,28.78
2022-08-25T12:25:17.550Z,33.32
2022-08-25T12:30:30.735Z,37.20
2022-08-25T12:35:56.235Z,39.23
2022-08-25T12:41:04.796Z,34.98
2022-08-25T12:46:29.849Z,32.71
2022-08-25T12:51:48.831Z,35.79
2022-08-25T12:56:59.302Z,36.26
2022-08-25T13:02:13.573Z,34.43
2022-08-25T13:07:29.033Z,35.67
2022-08-25T13:12:46.788Z,40.54
2022-08-25T13:17:48.698Z,40.34
2022-08-25T13:23:06.521Z,36.35
2022-08-25T13:28:40.713Z,34.63
2022-08-25T13:33:59.096Z,32.17
2022-08-25T13:39:12.500Z,30.52
2022-08-25T13:44:16.128Z,29.98
2022-08-25T13:49:27.053Z,30.45
2022-08-25T13:54:41.957Z,29.21
2022-08-25T13:59:49.203Z,31.02
2022-08-25T14:04:52.835Z,36.68
2022-08-25T14:09:58.798Z,35.73
2022-08-25T14:15:02.136Z,31.67
2022-08-25T14:20:06.040Z,30.36
2022-08-25T14:25:08.767Z,29.09
2022-08-25T14:30:13.008Z,28.08
2022-08-25T14:35:17.440Z,27.61
2022-08-25T14:40:20.076Z,27.76
2022-08-25T14:45:22.036Z,30.89
2022-08-25T14:50:24.837Z,31.86
2022-08-25T14:55:31.532Z,33.50
2022-08-25T15:00:37.425Z,32.09
2022-08-25T15:05:40.685Z,30.71
2022-08-25T15:10:43.448Z,29.78
2022-08-25T15:15:52.743Z,30.04
2022-08-25T15:20:55.036Z,29.82
2022-08-25T15:25:57.616Z,29.61
2022-08-25T15:31:00.058Z,29.34
2022-08-25T15:36:02.829Z,28.39
2022-08-25T15:41:06.163Z,27.50
2022-08-25T15:46:14.354Z,27.05
2022-08-25T15:51:19.022Z,26.75
2022-08-25T15:56:26.510Z,26.61
2022-08-25T16:01:30.688Z,26.57
2022-08-25T16:06:34.010Z,26.37
2022-08-25T16:11:35.884Z,26.12
2022-08-25T16:16:41.795Z,26.07
2022-08-25T16:21:47.454Z,26.21
2022-08-25T16:26:51.797Z,26.24
2022-08-25T16:31:55.220Z,26.29
2022-08-25T16:36:59.218Z,26.33
2022-08-25T16:42:03.544Z,26.31
2022-08-25T16:47:08.983Z,26.20
2022-08-25T16:52:30.333Z,26.23
2022-08-25T16:57:32.823Z,26.17
2022-08-25T17:02:34.866Z,25.93
2022-08-25T17:07:36.940Z,25.60
2022-08-25T17:12:39.678Z,25.36
2022-08-25T17:17:42.405Z,25.21
2022-08-25T17:22:44.260Z,24.97
2022-08-25T17:27:46.110Z,24.77
2022-08-25T17:32:51.093Z,24.58
2022-08-25T17:37:54.432Z,24.40
2022-08-25T17:42:56.766Z,24.20
2022-08-25T17:47:59.260Z,24.05
2022-08-25T17:53:01.254Z,23.78
2022-08-25T17:58:03.248Z,23.60
2022-08-25T18:03:06.401Z,23.33
2022-08-25T18:08:10.516Z,23.18
2022-08-25T18:13:13.389Z,22.93
2022-08-25T18:18:15.975Z,22.71
2022-08-25T18:23:19.681Z,22.47
2022-08-25T18:28:21.623Z,22.26
2022-08-25T18:33:23.665Z,22.03
2022-08-25T18:38:44.035Z,21.85
2022-08-25T18:43:47.361Z,21.68
2022-08-25T18:48:52.568Z,21.91
2022-08-25T18:53:59.155Z,21.84
2022-08-25T18:59:03.323Z,21.71
2022-08-25T19:04:05.227Z,21.58
2022-08-25T19:09:07.120Z,21.43
2022-08-25T19:14:12.456Z,21.29
2022-08-25T19:19:14.672Z,21.15
2022-08-25T19:24:16.756Z,21.02
2022-08-25T19:29:18.900Z,20.88
2022-08-25T19:34:28.265Z,20.74
2022-08-25T19:39:34.387Z,20.68
2022-08-25T19:44:36.371Z,20.61
2022-08-25T19:49:38.479Z,20.65
2022-08-25T19:54:46.363Z,20.70
2022-08-25T19:59:48.344Z,20.79
2022-08-25T20:04:53.400Z,20.94
2022-08-25T20:09:56.331Z,20.87
2022-08-25T20:15:00.117Z,20.78
2022-08-25T20:20:05.933Z,20.70
2022-08-25T20:25:13.469Z,20.58
2022-08-25T20:30:27.596Z,20.46
2022-08-25T20:35:29.509Z,20.35
2022-08-25T20:40:31.480Z,20.24
2022-08-25T20:45:33.671Z,20.19
2022-08-25T20:50:38.827Z,20.08
2022-08-25T20:55:42.646Z,19.97
2022-08-25T21:00:46.389Z,19.91
2022-08-25T21:05:48.227Z,19.80
2022-08-25T21:10:55.431Z,19.69
2022-08-25T21:15:57.522Z,19.62
2022-08-25T21:21:11.352Z,19.56
2022-08-25T21:26:24.724Z,19.48
2022-08-25T21:31:29.466Z,19.42
2022-08-25T21:36:32.342Z,19.32
2022-08-25T21:41:36.875Z,19.32
2022-08-25T21:46:39.066Z,19.20
2022-08-25T21:51:44.635Z,19.06
2022-08-25T21:56:59.493Z,18.96
2022-08-25T22:02:04.814Z,18.88
2022-08-25T22:07:08.955Z,18.80
2022-08-25T22:12:10.777Z,18.70
2022-08-25T22:17:16.917Z,18.68
2022-08-25T22:22:20.956Z,18.63
2022-08-25T22:27:23.687Z,18.78
2022-08-25T22:32:25.597Z,18.67
2022-08-25T22:37:27.769Z,18.51
2022-08-25T22:42:32.230Z,18.37
2022-08-25T22:47:33.913Z,18.28
2022-08-25T22:52:35.629Z,18.46
2022-08-25T22:57:37.631Z,18.33
2022-08-25T23:02:42.294Z,18.17
2022-08-25T23:07:43.924Z,18.05
2022-08-25T23:12:45.616Z,17.94
2022-08-25T23:17:47.309Z,17.85
2022-08-25T23:22:50.179Z,17.79
2022-08-25T23:27:55.335Z,17.76
2022-08-25T23:32:57.026Z,17.71
2022-08-25T23:37:58.705Z,17.67
2022-08-25T23:43:00.932Z,17.65
2022-08-25T23:48:05.216Z,17.55
2022-08-25T23:53:08.096Z,17.53
2022-08-25T23:58:10.706Z,17.51
